Terminal Aerodrome Forecast
Issued by NWS

Home | Current Version | Previous Version | Text Only | Print | Product List | Glossary On
Versions: 1 2 3 4 5 6 7 8 9 10 11 12 13
000
FTUS45 KABQ 272320
TAFSAF
TAF
KSAF 272320Z 2800/2824 34009KT P6SM VCTS BKN060CB BKN090
     FM280300 32005KT P6SM VCSH BKN070 BKN100
     FM280600 01005KT P6SM BKN110
     FM281700 27006KT P6SM BKN120
     FM282100 20009KT P6SM VCSH BKN070 BKN100=

USA.gov is the U.S. government's official web portal to all federal, state and local government web resources and services.